Time;durP1;ratioP1;P1;durP2;ratioP2;P2;SDS_P1;SDS_P2;PMS_P1;PMS_P2;Temp;Humidity;BMP_temperature;BMP_pressure;BME280_temperature;BME280_humidity;BME280_pressure;Samples;Min_cycle;Max_cycle;Signal;HPM_P1;HPM_P2
2022/01/06 00:03:55;;;;;;;12.85;3.90;;;;;;;1.60;83.73;99903.56;8393394;33;20482;-75
2022/01/06 00:09:00;;;;;;;8.30;3.35;;;;;;;1.58;83.50;99903.63;8394438;33;20435;-74
2022/01/06 00:14:11;;;;;;;14.98;3.58;;;;;;;1.91;82.65;99914.25;8394584;33;21035;-74
2022/01/06 00:24:36;;;;;;;8.38;3.08;;;;;;;2.23;81.01;99942.63;8396421;33;20169;-75
2022/01/06 00:29:40;;;;;;;12.77;3.65;;;;;;;2.55;80.54;99944.44;8398821;33;20608;-75
2022/01/06 00:34:43;;;;;;;11.45;3.45;;;;;;;2.50;79.97;99959.69;8394011;33;20190;-74
2022/01/06 00:39:46;;;;;;;16.30;4.18;;;;;;;2.58;80.41;99968.13;8366731;33;20154;-75
2022/01/06 00:44:51;;;;;;;9.15;3.13;;;;;;;2.62;80.95;99968.81;8393006;33;21064;-73
2022/01/06 00:49:53;;;;;;;13.60;3.95;;;;;;;2.42;80.26;99975.16;8389039;33;20474;-76
2022/01/06 00:54:56;;;;;;;18.33;4.22;;;;;;;2.24;79.90;99977.00;8375375;33;20411;-73
2022/01/06 01:00:01;;;;;;;11.38;2.90;;;;;;;2.27;79.66;99990.06;8378563;33;20428;-76
2022/01/06 01:05:05;;;;;;;9.07;3.03;;;;;;;2.30;79.79;99989.91;8376160;33;20178;-73
2022/01/06 01:10:09;;;;;;;8.75;3.40;;;;;;;2.16;79.37;99998.59;8375398;33;20427;-76
2022/01/06 01:15:19;;;;;;;7.53;2.83;;;;;;;2.29;79.60;100011.22;8377040;33;20459;-75
2022/01/06 01:20:22;;;;;;;9.27;2.20;;;;;;;2.38;80.23;100022.16;8392674;33;20556;-74
2022/01/06 01:25:26;;;;;;;6.03;2.10;;;;;;;2.18;81.64;100043.56;8364529;33;21315;-74
2022/01/06 01:30:33;;;;;;;7.60;3.05;;;;;;;2.05;81.93;100053.94;8376961;33;20435;-74
2022/01/06 01:35:35;;;;;;;7.95;3.08;;;;;;;1.98;82.56;100068.44;8376493;33;20494;-74
2022/01/06 01:40:39;;;;;;;6.80;2.78;;;;;;;2.01;82.83;100083.34;8375363;33;20480;-75
2022/01/06 01:45:46;;;;;;;9.88;3.45;;;;;;;1.91;83.67;100099.66;8375731;33;20625;-75
2022/01/06 01:50:49;;;;;;;9.63;3.30;;;;;;;1.89;83.74;100104.22;8376291;33;20464;-75
2022/01/06 01:55:53;;;;;;;8.52;3.00;;;;;;;1.92;84.22;100116.41;8375280;33;20476;-76
2022/01/06 02:00:57;;;;;;;16.35;3.90;;;;;;;1.81;84.60;100135.50;8376222;33;20185;-75
2022/01/06 02:06:01;;;;;;;9.45;2.80;;;;;;;1.90;84.37;100134.19;8379336;33;20169;-76
2022/01/06 02:11:04;;;;;;;8.77;3.03;;;;;;;1.98;84.23;100155.03;8384316;33;20213;-76
2022/01/06 02:16:08;;;;;;;11.98;3.15;;;;;;;1.96;84.12;100165.69;8390446;33;20154;-76
2022/01/06 02:21:13;;;;;;;9.68;3.42;;;;;;;1.56;84.07;100169.38;8376960;33;20464;-75
2022/01/06 02:26:16;;;;;;;5.07;2.70;;;;;;;1.74;84.01;100168.50;8376885;33;20409;-75
2022/01/06 02:31:20;;;;;;;7.72;2.92;;;;;;;1.65;84.08;100168.97;8389068;33;20276;-75
2022/01/06 02:36:25;;;;;;;6.75;2.70;;;;;;;1.65;84.17;100182.19;8388349;33;21162;-77
2022/01/06 02:41:28;;;;;;;7.88;3.53;;;;;;;1.57;84.02;100189.63;8378507;33;20409;-77
2022/01/06 02:46:31;;;;;;;9.13;3.35;;;;;;;1.46;83.97;100198.94;8379300;33;20218;-76
2022/01/06 02:51:35;;;;;;;6.38;2.40;;;;;;;1.27;84.15;100209.50;8378431;33;20260;-76
2022/01/06 02:56:38;;;;;;;3.70;2.53;;;;;;;0.78;84.70;100208.16;8378010;33;20555;-77
2022/01/06 03:01:44;;;;;;;7.20;2.58;;;;;;;0.96;84.57;100222.34;8378214;33;20442;-75
2022/01/06 03:06:49;;;;;;;7.88;3.45;;;;;;;0.93;84.57;100225.13;8376350;33;20428;-75
2022/01/06 03:11:53;;;;;;;8.00;3.20;;;;;;;0.77;84.63;100239.03;8377818;33;20760;-76
2022/01/06 03:16:56;;;;;;;6.05;3.40;;;;;;;0.63;84.42;100240.53;8386146;33;20432;-76
2022/01/06 03:22:01;;;;;;;12.88;2.75;;;;;;;0.57;84.78;100249.59;8382636;33;21950;-75
2022/01/06 03:27:04;;;;;;;4.13;2.55;;;;;;;0.58;84.84;100241.59;8375918;33;20503;-75
2022/01/06 03:32:07;;;;;;;10.88;3.25;;;;;;;0.57;85.28;100249.59;8374273;33;20303;-77
2022/01/06 03:37:12;;;;;;;7.15;2.83;;;;;;;0.65;84.95;100251.91;8373872;33;20460;-76
2022/01/06 03:42:15;;;;;;;9.18;3.15;;;;;;;0.50;84.59;100251.63;8371999;33;20214;-76
2022/01/06 03:47:18;;;;;;;10.95;3.45;;;;;;;0.43;84.96;100251.94;8373132;33;20699;-76
2022/01/06 03:52:22;;;;;;;4.43;2.45;;;;;;;0.44;85.08;100267.75;8371305;33;20192;-75
2022/01/06 03:57:25;;;;;;;5.25;2.42;;;;;;;0.41;85.00;100267.00;8373326;33;20503;-76
2022/01/06 04:02:29;;;;;;;2.25;1.98;;;;;;;0.38;85.29;100275.91;8378252;33;20485;-76
2022/01/06 04:07:33;;;;;;;8.63;2.35;;;;;;;0.31;85.48;100277.09;8377740;33;20190;-75
2022/01/06 04:12:37;;;;;;;9.65;2.75;;;;;;;0.26;85.35;100293.13;8375885;33;21199;-75
2022/01/06 04:17:41;;;;;;;5.53;2.22;;;;;;;0.25;85.46;100301.97;8378066;33;20515;-75
2022/01/06 04:22:46;;;;;;;5.38;2.60;;;;;;;0.32;85.61;100319.28;8377612;33;20496;-76
2022/01/06 04:27:49;;;;;;;8.18;2.70;;;;;;;0.28;85.58;100330.91;8377870;33;20182;-76
2022/01/06 04:32:52;;;;;;;6.97;2.20;;;;;;;0.32;85.55;100324.59;8377249;33;20160;-75
2022/01/06 04:37:56;;;;;;;9.30;3.13;;;;;;;0.22;85.95;100325.88;8377141;33;20201;-75
2022/01/06 04:42:59;;;;;;;5.70;2.83;;;;;;;0.17;85.59;100330.47;8377099;33;21357;-75
2022/01/06 04:48:03;;;;;;;7.60;2.70;;;;;;;0.10;85.77;100339.56;8377241;33;20427;-75
2022/01/06 04:53:07;;;;;;;11.75;2.65;;;;;;;0.14;85.57;100344.66;8373812;33;20176;-74
2022/01/06 04:58:10;;;;;;;6.55;3.00;;;;;;;0.14;85.38;100354.38;8369589;33;20485;-75
2022/01/06 05:03:13;;;;;;;5.75;2.83;;;;;;;-0.17;85.94;100365.22;8367121;33;20842;-75
2022/01/06 05:08:17;;;;;;;7.13;3.47;;;;;;;-0.00;85.93;100372.50;8333363;33;20477;-75
2022/01/06 05:13:26;;;;;;;8.02;3.70;;;;;;;0.07;85.64;100376.66;8371589;33;20153;-76
2022/01/06 05:18:29;;;;;;;8.48;2.95;;;;;;;0.00;85.57;100389.25;8389544;33;20206;-76
2022/01/06 05:23:34;;;;;;;9.30;3.38;;;;;;;-0.05;85.23;100385.91;8371751;33;20185;-75
2022/01/06 05:28:37;;;;;;;16.48;3.65;;;;;;;-0.06;85.44;100392.94;8364843;33;20484;-76
2022/01/06 05:33:41;;;;;;;7.82;3.35;;;;;;;-0.21;85.83;100413.78;8364555;33;20899;-75
2022/01/06 05:38:45;;;;;;;7.80;3.10;;;;;;;-0.21;85.82;100412.00;8367254;33;20237;-75
2022/01/06 05:43:48;;;;;;;7.50;3.15;;;;;;;-0.17;85.99;100410.09;8369058;33;20534;-75
2022/01/06 05:48:52;;;;;;;8.32;2.95;;;;;;;-0.16;85.70;100417.13;8369089;33;20414;-74
2022/01/06 05:53:56;;;;;;;9.02;3.38;;;;;;;-0.23;86.25;100413.81;8368213;33;20186;-75
2022/01/06 05:58:59;;;;;;;7.03;3.47;;;;;;;-0.34;86.21;100426.53;8364581;33;20446;-75
2022/01/06 06:04:02;;;;;;;8.20;3.97;;;;;;;-0.34;86.43;100426.53;8370856;33;20423;-76
2022/01/06 06:09:07;;;;;;;10.52;4.70;;;;;;;-0.40;86.99;100427.63;8367642;33;22493;-75
2022/01/06 06:14:10;;;;;;;7.38;4.38;;;;;;;-0.36;87.17;100431.00;8375521;33;20151;-75
2022/01/06 06:19:13;;;;;;;10.55;4.50;;;;;;;-0.39;87.22;100433.75;8381395;33;20162;-75
2022/01/06 06:24:18;;;;;;;9.15;4.63;;;;;;;-0.22;87.21;100436.69;8371065;33;20185;-75
2022/01/06 06:29:22;;;;;;;16.17;5.50;;;;;;;-0.09;86.46;100455.56;8369689;33;20475;-76
2022/01/06 06:34:25;;;;;;;17.83;5.80;;;;;;;0.02;86.44;100463.13;8369867;33;20142;-75
2022/01/06 06:39:29;;;;;;;16.35;5.80;;;;;;;0.04;86.68;100463.94;8367293;33;20887;-75
2022/01/06 06:44:32;;;;;;;11.57;6.10;;;;;;;0.27;86.10;100477.16;8374288;33;21013;-76
2022/01/06 06:49:37;;;;;;;13.23;6.32;;;;;;;0.38;85.62;100474.13;8379265;33;20146;-76
2022/01/06 06:54:42;;;;;;;17.42;6.38;;;;;;;0.33;85.57;100484.88;8354691;33;20747;-75
2022/01/06 06:59:45;;;;;;;12.80;5.65;;;;;;;0.24;85.37;100492.25;8380412;33;20197;-75
2022/01/06 07:04:48;;;;;;;18.70;6.93;;;;;;;0.13;85.06;100496.16;8377813;33;20135;-74
2022/01/06 07:09:52;;;;;;;10.85;5.50;;;;;;;0.08;85.22;100503.41;8374163;33;20424;-75
2022/01/06 07:14:55;;;;;;;15.38;6.60;;;;;;;0.04;85.24;100504.41;8375276;33;20521;-75
2022/01/06 07:19:58;;;;;;;16.20;6.50;;;;;;;0.02;85.17;100513.31;8371980;33;20736;-76
2022/01/06 07:25:03;;;;;;;16.45;5.70;;;;;;;-0.03;85.33;100526.66;8371837;33;21362;-76
2022/01/06 07:30:08;;;;;;;16.70;5.95;;;;;;;-0.07;85.33;100527.69;8373787;33;20149;-76
2022/01/06 07:35:12;;;;;;;15.18;6.40;;;;;;;-0.19;85.90;100536.03;8374787;33;20194;-75
2022/01/06 07:40:19;;;;;;;14.23;6.18;;;;;;;-0.03;85.64;100546.94;8378758;33;20147;-75
2022/01/06 07:45:22;;;;;;;17.58;8.32;;;;;;;0.02;85.36;100561.69;8377912;33;20193;-76
2022/01/06 07:50:28;;;;;;;13.10;6.40;;;;;;;0.08;85.24;100579.13;8389086;33;20491;-75
2022/01/06 07:55:32;;;;;;;14.57;7.23;;;;;;;0.11;85.78;100577.25;8398507;33;20272;-76
2022/01/06 08:00:35;;;;;;;18.73;7.20;;;;;;;0.07;85.50;100588.81;8404419;33;20427;-75
2022/01/06 08:05:38;;;;;;;18.25;7.15;;;;;;;0.00;85.34;100587.34;8379149;33;20431;-75
2022/01/06 08:10:43;;;;;;;17.10;7.20;;;;;;;-0.09;85.79;100587.63;8377089;33;20513;-75
2022/01/06 08:15:46;;;;;;;19.98;7.90;;;;;;;-0.00;85.63;100594.38;8377882;33;20433;-75
2022/01/06 08:20:49;;;;;;;15.98;7.95;;;;;;;-0.02;86.11;100599.72;8376950;33;20425;-75
2022/01/06 08:25:54;;;;;;;16.77;7.22;;;;;;;0.28;86.07;100612.81;8377460;33;20516;-75
2022/01/06 08:30:57;;;;;;;17.98;7.47;;;;;;;0.43;85.57;100609.59;8378361;33;20561;-75
2022/01/06 08:36:00;;;;;;;17.08;6.85;;;;;;;0.58;84.91;100611.72;8374622;33;20457;-75
2022/01/06 08:41:05;;;;;;;15.02;6.50;;;;;;;0.67;84.30;100620.22;8373655;33;20955;-76
2022/01/06 08:46:08;;;;;;;16.30;6.30;;;;;;;1.00;83.40;100634.84;8378034;33;20912;-75
2022/01/06 08:51:11;;;;;;;17.80;8.15;;;;;;;1.12;82.84;100636.16;8373598;33;20541;-75
2022/01/06 08:56:16;;;;;;;14.07;6.75;;;;;;;1.38;82.50;100636.97;8396834;33;20505;-75
2022/01/06 09:01:19;;;;;;;15.82;6.88;;;;;;;1.75;81.54;100635.50;8404637;33;20150;-75
2022/01/06 09:06:22;;;;;;;14.50;6.32;;;;;;;1.86;80.94;100660.63;8394815;33;20154;-76
2022/01/06 09:11:26;;;;;;;13.32;6.15;;;;;;;2.14;79.55;100651.56;8358313;28;20536;-75
2022/01/06 09:16:29;;;;;;;15.25;6.47;;;;;;;1.75;78.78;100667.28;8343039;34;20417;-77
2022/01/06 09:21:34;;;;;;;16.08;6.05;;;;;;;1.28;81.57;100670.84;8347606;34;20437;-77
2022/01/06 09:26:39;;;;;;;11.98;5.53;;;;;;;1.43;81.49;100669.41;8350414;34;20585;-75
2022/01/06 09:31:43;;;;;;;13.05;5.85;;;;;;;1.39;80.84;100660.72;8349820;34;20289;-76
2022/01/06 09:36:46;;;;;;;8.95;4.82;;;;;;;1.48;80.88;100678.91;8340195;34;20316;-76
2022/01/06 09:41:51;;;;;;;16.77;6.10;;;;;;;1.81;79.97;100673.22;8346041;34;20540;-75
2022/01/06 09:46:55;;;;;;;15.82;6.28;;;;;;;1.97;78.97;100681.38;8345191;34;20154;-75
2022/01/06 09:51:58;;;;;;;13.98;4.75;;;;;;;1.99;77.87;100686.63;8343264;34;20131;-75
2022/01/06 09:57:03;;;;;;;11.80;5.07;;;;;;;2.72;77.33;100683.56;8344589;34;20620;-75
2022/01/06 10:02:06;;;;;;;10.68;5.00;;;;;;;3.15;75.27;100692.25;8349827;34;20195;-76
2022/01/06 10:07:10;;;;;;;10.07;5.28;;;;;;;3.62;73.20;100686.56;8355094;34;20479;-76
2022/01/06 10:12:15;;;;;;;9.07;4.43;;;;;;;4.02;72.17;100686.44;8354849;34;20434;-76
2022/01/06 10:17:30;;;;;;;10.32;4.32;;;;;;;3.80;70.10;100702.56;8353351;34;20250;-76
2022/01/06 10:22:45;;;;;;;10.82;4.38;;;;;;;3.81;71.06;100699.81;8362394;34;20138;-75
2022/01/06 10:27:56;;;;;;;9.52;4.32;;;;;;;3.98;69.15;100695.47;8362816;34;20922;-76
2022/01/06 10:33:00;;;;;;;6.65;3.63;;;;;;;3.60;68.59;100699.06;8356908;34;20660;-75
2022/01/06 10:38:03;;;;;;;11.15;3.15;;;;;;;3.55;69.55;100710.84;8357218;34;20702;-76
2022/01/06 10:43:08;;;;;;;5.60;2.97;;;;;;;4.11;67.79;100709.91;8354326;34;20977;-76
2022/01/06 10:48:11;;;;;;;4.78;3.50;;;;;;;4.76;66.47;100707.53;8351403;34;20136;-77
2022/01/06 10:53:30;;;;;;;7.10;4.30;;;;;;;5.14;64.62;100702.03;8350757;34;20449;-76
2022/01/06 10:58:34;;;;;;;5.95;3.50;;;;;;;4.79;64.42;100702.06;8351641;34;20458;-76
2022/01/06 11:03:37;;;;;;;7.35;2.92;;;;;;;4.75;65.61;100708.50;8355501;34;20175;-77
2022/01/06 11:08:42;;;;;;;5.13;2.75;;;;;;;4.40;64.41;100705.81;8352471;34;21180;-75
2022/01/06 11:13:49;;;;;;;4.88;2.70;;;;;;;4.50;65.38;100706.19;8350014;34;20148;-77
2022/01/06 11:18:54;;;;;;;6.72;2.78;;;;;;;5.23;63.32;100707.72;8348197;34;20183;-76
2022/01/06 11:24:10;;;;;;;5.90;2.90;;;;;;;4.83;63.33;100715.13;8351254;34;20437;-76
2022/01/06 11:29:15;;;;;;;5.38;2.97;;;;;;;5.06;63.27;100705.09;8344353;34;20945;-76
2022/01/06 11:34:20;;;;;;;9.02;4.40;;;;;;;5.24;63.23;100714.78;8352372;34;20678;-76
2022/01/06 11:39:28;;;;;;;9.27;3.33;;;;;;;5.05;63.35;100716.72;8346024;34;20298;-76
2022/01/06 11:44:33;;;;;;;6.55;3.30;;;;;;;6.12;62.27;100715.28;8346322;34;20235;-76
2022/01/06 11:49:42;;;;;;;5.75;2.92;;;;;;;6.38;60.37;100711.09;8278452;34;20152;-76
2022/01/06 11:54:51;;;;;;;7.63;3.42;;;;;;;7.14;58.96;100704.84;8344432;34;20648;-77
2022/01/06 11:59:56;;;;;;;7.32;3.00;;;;;;;7.65;57.25;100716.75;8358662;34;20163;-75
2022/01/06 12:05:00;;;;;;;8.57;3.70;;;;;;;6.39;58.71;100708.34;8368907;34;20852;-76
2022/01/06 12:10:07;;;;;;;10.13;3.45;;;;;;;5.30;61.51;100702.94;8361213;34;20421;-75
2022/01/06 12:15:15;;;;;;;7.78;3.42;;;;;;;5.50;61.36;100699.19;8355784;34;20212;-77
2022/01/06 12:20:21;;;;;;;9.18;3.33;;;;;;;4.52;64.84;100699.88;8351656;34;20658;-75
2022/01/06 12:25:27;;;;;;;13.02;4.18;;;;;;;6.61;61.69;100693.75;8349014;34;20709;-75
2022/01/06 12:30:37;;;;;;;10.43;4.20;;;;;;;7.42;57.30;100691.44;8349170;34;20523;-76
2022/01/06 12:35:45;;;;;;;13.98;4.13;;;;;;;6.27;59.93;100693.03;8347001;34;20482;-75
2022/01/06 12:40:48;;;;;;;9.30;4.15;;;;;;;5.27;64.30;100706.63;8311246;34;20255;-76
2022/01/06 12:46:13;;;;;;;11.23;4.25;;;;;;;5.43;63.10;100692.47;8344787;34;20150;-76
2022/01/06 12:51:20;;;;;;;8.98;3.85;;;;;;;5.00;64.11;100694.78;8348867;34;20159;-75
2022/01/06 12:56:25;;;;;;;11.48;4.10;;;;;;;4.48;65.68;100706.28;8345707;34;20438;-75
2022/01/06 13:01:31;;;;;;;10.82;4.55;;;;;;;4.43;66.98;100707.47;8348603;34;20406;-76
2022/01/06 13:06:37;;;;;;;9.80;4.28;;;;;;;4.70;66.42;100714.03;8356874;34;20163;-76
2022/01/06 13:11:48;;;;;;;15.38;4.47;;;;;;;5.02;65.63;100707.09;8352652;34;20520;-75
2022/01/06 13:16:53;;;;;;;9.60;4.32;;;;;;;5.66;64.78;100717.88;8351164;34;20891;-76
2022/01/06 13:21:58;;;;;;;17.95;5.78;;;;;;;6.77;60.27;100720.38;8351290;34;20182;-75
2022/01/06 13:27:07;;;;;;;10.75;3.70;;;;;;;5.89;61.51;100717.44;8355475;34;20461;-75
2022/01/06 13:32:14;;;;;;;6.35;3.55;;;;;;;5.79;62.69;100718.03;8353326;34;20257;-74
2022/01/06 13:37:19;;;;;;;9.05;4.18;;;;;;;5.45;63.10;100726.06;8345835;34;20257;-75
2022/01/06 13:42:29;;;;;;;8.50;4.45;;;;;;;5.53;62.58;100719.47;8345249;34;20529;-75
2022/01/06 13:47:49;;;;;;;9.52;3.65;;;;;;;5.23;63.69;100722.84;8343673;34;20266;-74
2022/01/06 13:52:52;;;;;;;7.35;4.00;;;;;;;5.36;63.67;100717.75;8342117;34;20289;-74
2022/01/06 13:57:55;;;;;;;10.73;3.35;;;;;;;5.30;63.80;100718.94;8345786;34;20422;-74
2022/01/06 14:03:00;;;;;;;11.48;4.07;;;;;;;5.38;62.72;100723.84;8346556;34;20421;-76
2022/01/06 14:08:03;;;;;;;7.53;3.40;;;;;;;4.68;65.08;100723.91;8344633;34;20140;-74
2022/01/06 14:13:06;;;;;;;11.90;4.18;;;;;;;4.75;65.54;100730.63;8343336;34;20186;-75
2022/01/06 14:18:12;;;;;;;12.82;4.93;;;;;;;4.64;66.38;100726.81;8345029;34;20432;-75
2022/01/06 14:23:15;;;;;;;12.52;4.32;;;;;;;4.78;65.67;100732.28;8347521;34;20178;-75
2022/01/06 14:28:18;;;;;;;14.45;4.43;;;;;;;4.62;66.15;100727.72;8348347;34;20542;-75
2022/01/06 14:33:23;;;;;;;5.60;3.88;;;;;;;4.87;66.31;100730.94;8351230;34;20691;-74
2022/01/06 14:38:27;;;;;;;9.55;4.28;;;;;;;4.89;66.03;100737.91;8355908;34;20613;-74
2022/01/06 14:43:30;;;;;;;11.63;4.32;;;;;;;4.58;66.89;100730.63;8355461;34;20209;-74
2022/01/06 14:48:34;;;;;;;13.93;5.50;;;;;;;4.42;67.18;100733.22;8364002;34;20246;-74
2022/01/06 14:53:37;;;;;;;12.63;5.60;;;;;;;4.32;68.15;100734.59;8361144;34;21008;-75
2022/01/06 14:58:41;;;;;;;12.30;4.85;;;;;;;4.28;68.43;100731.22;8352742;34;20426;-75
2022/01/06 15:03:45;;;;;;;10.98;5.38;;;;;;;4.09;68.26;100739.25;8350211;34;20206;-75
2022/01/06 15:08:49;;;;;;;16.55;7.63;;;;;;;3.56;70.70;100734.66;8357039;28;20449;-75
2022/01/06 15:13:52;;;;;;;19.92;8.82;;;;;;;3.20;72.17;100740.72;8348955;34;20612;-74
2022/01/06 15:18:56;;;;;;;13.13;7.43;;;;;;;3.01;73.07;100732.69;8352417;34;20241;-75
2022/01/06 15:24:00;;;;;;;17.13;7.72;;;;;;;2.90;73.77;100736.75;8369283;34;20531;-75
2022/01/06 15:29:04;;;;;;;11.35;7.28;;;;;;;2.75;74.10;100736.50;8367167;34;20186;-74
2022/01/06 15:34:08;;;;;;;13.65;7.15;;;;;;;2.63;74.54;100733.50;8354212;34;20355;-75
2022/01/06 15:39:11;;;;;;;10.93;7.68;;;;;;;2.48;74.82;100746.44;8354087;34;21008;-75
2022/01/06 15:44:17;;;;;;;15.70;8.02;;;;;;;2.32;76.01;100743.56;8353748;34;20551;-75
2022/01/06 15:49:24;;;;;;;13.70;7.97;;;;;;;2.22;76.36;100744.00;8358382;34;21340;-75
2022/01/06 15:54:27;;;;;;;15.75;7.88;;;;;;;2.17;77.20;100752.16;8359335;34;20175;-75
2022/01/06 15:59:34;;;;;;;17.48;7.70;;;;;;;2.20;77.22;100751.16;8371401;34;20663;-74
2022/01/06 16:10:00;;;;;;;17.52;7.38;;;;;;;2.10;77.87;100761.25;8371676;34;20567;-74
2022/01/06 16:15:06;;;;;;;17.80;8.38;;;;;;;2.03;77.62;100747.41;8372295;34;20505;-75
2022/01/06 16:20:12;;;;;;;16.45;8.82;;;;;;;2.02;77.83;100743.00;8359128;34;20520;-74
2022/01/06 16:25:15;;;;;;;17.77;10.40;;;;;;;1.99;77.42;100747.56;8371581;34;21123;-74
2022/01/06 16:30:34;;;;;;;18.55;8.48;;;;;;;1.83;78.07;100755.25;8371439;34;21144;-74
2022/01/06 16:35:39;;;;;;;23.42;8.93;;;;;;;1.86;78.05;100756.00;8374080;34;20285;-74
2022/01/06 16:40:42;;;;;;;17.58;8.15;;;;;;;1.83;77.71;100755.25;8376341;34;20294;-75
2022/01/06 16:45:45;;;;;;;13.25;6.88;;;;;;;1.89;77.32;100758.56;8375684;34;20531;-75
2022/01/06 16:50:50;;;;;;;9.70;6.55;;;;;;;1.89;77.22;100758.56;8374806;34;20159;-74
2022/01/06 16:55:53;;;;;;;14.47;7.90;;;;;;;1.85;77.12;100751.63;8374102;34;20982;-74
2022/01/06 17:00:56;;;;;;;24.77;9.48;;;;;;;1.82;77.27;100756.19;8371226;34;20616;-74
2022/01/06 17:06:01;;;;;;;16.38;7.88;;;;;;;1.73;76.95;100752.13;8370721;34;20155;-74
2022/01/06 17:11:04;;;;;;;15.43;8.52;;;;;;;1.67;77.45;100745.28;8374599;34;20573;-74
2022/01/06 17:16:07;;;;;;;23.60;9.48;;;;;;;1.59;77.31;100752.66;8369034;34;20533;-74
2022/01/06 17:21:12;;;;;;;15.82;8.00;;;;;;;1.54;77.49;100751.06;8369112;34;21014;-74
2022/01/06 17:26:18;;;;;;;14.88;7.45;;;;;;;1.55;77.83;100758.97;8370241;34;20455;-74
2022/01/06 17:31:21;;;;;;;18.08;9.65;;;;;;;1.48;77.63;100762.75;8365048;34;20289;-74
2022/01/06 17:36:27;;;;;;;21.02;8.80;;;;;;;1.45;77.86;100763.75;8365023;34;20529;-74
2022/01/06 17:41:31;;;;;;;26.85;9.82;;;;;;;1.49;77.63;100764.50;8356157;34;20136;-74
2022/01/06 17:46:40;;;;;;;16.88;8.25;;;;;;;1.40;77.94;100767.47;8356392;34;20694;-74
2022/01/06 17:51:44;;;;;;;17.98;7.93;;;;;;;1.42;78.20;100773.56;8382605;34;20153;-74
2022/01/06 17:56:47;;;;;;;16.52;8.57;;;;;;;1.30;78.35;100772.25;8373869;34;20437;-74
2022/01/06 18:01:50;;;;;;;22.30;9.50;;;;;;;1.11;78.89;100779.13;8379569;34;20530;-74
2022/01/06 18:06:58;;;;;;;24.60;11.27;;;;;;;1.26;78.51;100766.22;8384747;34;20185;-74
2022/01/06 18:12:01;;;;;;;24.77;10.77;;;;;;;1.25;78.84;100764.47;8399909;34;20161;-74
2022/01/06 18:17:05;;;;;;;27.13;10.98;;;;;;;1.34;77.98;100762.41;8416108;34;20299;-74
2022/01/06 18:22:10;;;;;;;21.42;8.63;;;;;;;1.31;77.97;100768.66;8394319;34;20517;-74
2022/01/06 18:27:13;;;;;;;26.45;10.60;;;;;;;1.22;78.30;100769.00;8417142;34;20451;-74
2022/01/06 18:32:16;;;;;;;26.77;10.75;;;;;;;1.20;78.37;100762.91;8417737;34;20457;-74
2022/01/06 18:37:21;;;;;;;20.83;11.02;;;;;;;1.25;77.61;100758.31;8416419;34;20550;-74
2022/01/06 18:42:24;;;;;;;22.77;9.63;;;;;;;1.19;77.54;100761.19;8413295;34;20410;-74
2022/01/06 18:47:31;;;;;;;25.52;11.68;;;;;;;1.03;77.79;100758.22;8407725;34;20544;-74
2022/01/06 18:52:35;;;;;;;23.35;10.38;;;;;;;1.17;77.73;100749.78;8408310;34;20139;-75
2022/01/06 18:57:39;;;;;;;25.83;9.80;;;;;;;1.06;77.44;100750.16;8408441;34;20527;-74
2022/01/06 19:02:42;;;;;;;21.95;9.23;;;;;;;0.94;78.02;100738.25;8409748;34;20147;-74
2022/01/06 19:07:47;;;;;;;20.10;8.95;;;;;;;0.96;76.99;100736.44;8412062;34;20423;-74
2022/01/06 19:12:50;;;;;;;21.17;9.65;;;;;;;1.10;76.55;100730.63;8411337;34;20183;-75
2022/01/06 19:17:53;;;;;;;19.55;9.10;;;;;;;1.06;76.49;100723.72;8413884;34;20198;-75
2022/01/06 19:22:58;;;;;;;18.73;9.32;;;;;;;0.93;76.94;100731.22;8418834;34;20528;-75
2022/01/06 19:28:01;;;;;;;23.77;9.43;;;;;;;1.01;76.75;100723.00;8424959;34;20592;-74
2022/01/06 19:33:04;;;;;;;21.05;9.25;;;;;;;0.92;76.82;100716.28;8386664;34;20536;-74
2022/01/06 19:38:11;;;;;;;21.08;8.60;;;;;;;0.87;77.38;100712.06;8363541;34;20941;-74
2022/01/06 19:43:14;;;;;;;22.10;9.25;;;;;;;0.90;76.78;100714.59;8360865;34;20470;-74
2022/01/06 19:48:18;;;;;;;22.13;9.57;;;;;;;0.79;77.06;100714.97;8358557;34;20415;-75
2022/01/06 19:53:23;;;;;;;26.13;10.13;;;;;;;0.82;77.09;100717.50;8358411;34;20427;-74
2022/01/06 19:58:26;;;;;;;25.25;10.10;;;;;;;0.83;77.01;100722.75;8356476;34;20499;-74
2022/01/06 20:03:29;;;;;;;24.65;9.07;;;;;;;0.69;77.34;100713.59;8358497;34;21012;-74
2022/01/06 20:08:35;;;;;;;26.75;9.88;;;;;;;0.72;77.38;100714.34;8358727;34;21022;-74
2022/01/06 20:13:38;;;;;;;26.95;10.35;;;;;;;0.72;77.23;100710.84;8363288;34;20679;-74
2022/01/06 20:18:41;;;;;;;22.58;9.18;;;;;;;0.53;77.26;100707.97;8371491;34;20362;-74
2022/01/06 20:23:45;;;;;;;24.23;9.98;;;;;;;0.52;77.52;100699.19;8373532;34;20283;-74
2022/01/06 20:28:51;;;;;;;21.38;9.85;;;;;;;0.48;76.96;100701.97;8374400;34;20437;-74
2022/01/06 20:33:54;;;;;;;20.65;8.80;;;;;;;0.52;77.09;100687.72;8375042;34;20309;-74
2022/01/06 20:38:59;;;;;;;25.20;10.88;;;;;;;0.51;77.42;100686.84;8376981;34;20559;-75
2022/01/06 20:44:02;;;;;;;29.95;10.40;;;;;;;0.38;77.35;100677.59;8381456;34;20248;-74
2022/01/06 20:54:27;;;;;;;24.65;9.50;;;;;;;0.41;77.61;100693.34;8372065;34;20486;-74
2022/01/06 20:59:30;;;;;;;20.13;10.02;;;;;;;0.56;76.99;100684.06;8372280;34;20674;-74
2022/01/06 21:04:33;;;;;;;18.23;9.93;;;;;;;0.54;76.86;100684.09;8368419;34;20944;-75
2022/01/06 21:09:38;;;;;;;13.18;7.68;;;;;;;0.53;76.56;100669.16;8379513;29;20424;-75
2022/01/06 21:14:41;;;;;;;20.60;9.75;;;;;;;0.49;77.29;100661.38;8412074;34;20422;-76
2022/01/06 21:19:45;;;;;;;18.83;8.73;;;;;;;0.42;77.41;100655.47;8415218;34;20484;-75
2022/01/06 21:24:50;;;;;;;22.10;8.55;;;;;;;0.28;77.46;100645.38;8410486;34;20154;-74
2022/01/06 21:29:53;;;;;;;21.92;10.18;;;;;;;0.35;77.77;100646.88;8409934;34;20138;-75
2022/01/06 21:34:57;;;;;;;21.85;10.90;;;;;;;0.31;77.77;100639.13;8410071;34;20702;-75
2022/01/06 21:40:01;;;;;;;19.35;9.15;;;;;;;0.15;78.61;100631.69;8410913;34;20254;-75
2022/01/06 21:45:06;;;;;;;18.00;8.30;;;;;;;0.24;77.92;100622.59;8419039;34;20543;-75
2022/01/06 21:50:13;;;;;;;20.15;8.77;;;;;;;0.35;77.74;100609.88;8423303;34;20465;-75
2022/01/06 21:55:18;;;;;;;19.40;9.30;;;;;;;0.31;77.80;100610.91;8424602;34;20515;-75
2022/01/06 22:00:26;;;;;;;22.52;8.90;;;;;;;0.41;77.82;100600.84;8410723;34;20424;-75
2022/01/06 22:05:30;;;;;;;26.20;9.45;;;;;;;0.34;78.13;100600.22;8411215;34;20154;-76
2022/01/06 22:10:34;;;;;;;22.55;9.02;;;;;;;0.35;77.83;100601.94;8406615;34;20563;-76
2022/01/06 22:15:37;;;;;;;25.42;9.30;;;;;;;0.32;78.24;100596.75;8409871;34;21260;-75
2022/01/06 22:20:40;;;;;;;24.90;10.07;;;;;;;0.41;77.65;100594.72;8409036;34;20897;-75
2022/01/06 22:25:46;;;;;;;21.10;9.02;;;;;;;0.51;77.57;100583.75;8410304;34;20447;-75
2022/01/06 22:30:49;;;;;;;19.95;8.85;;;;;;;0.50;77.47;100582.03;8408514;34;20249;-75
2022/01/06 22:35:52;;;;;;;22.13;9.88;;;;;;;0.39;77.54;100582.44;8407238;34;20157;-75
2022/01/06 22:40:56;;;;;;;17.98;6.78;;;;;;;0.49;77.43;100582.09;8408263;34;20316;-75
2022/01/06 22:45:59;;;;;;;17.70;9.20;;;;;;;0.61;77.33;100563.16;8408872;33;20541;-75
2022/01/06 22:51:06;;;;;;;24.63;9.55;;;;;;;0.61;76.88;100566.66;8409715;34;20582;-75
2022/01/06 22:56:10;;;;;;;25.40;9.10;;;;;;;0.53;77.08;100565.22;8412524;34;20713;-75
2022/01/06 23:01:13;;;;;;;19.00;9.15;;;;;;;0.67;76.40;100554.13;8414781;34;21101;-75
2022/01/06 23:06:16;;;;;;;20.38;8.85;;;;;;;0.63;76.13;100552.50;8414584;34;20423;-75
2022/01/06 23:11:21;;;;;;;16.10;7.72;;;;;;;0.62;76.27;100554.28;8404460;34;20463;-75
2022/01/06 23:16:25;;;;;;;14.30;6.82;;;;;;;0.80;75.38;100550.97;8405748;34;20240;-75
2022/01/06 23:21:29;;;;;;;19.80;7.70;;;;;;;0.74;75.55;100537.09;8405373;34;20546;-75
2022/01/06 23:26:35;;;;;;;15.80;7.57;;;;;;;0.73;75.45;100546.81;8411733;34;20406;-75
2022/01/06 23:31:40;;;;;;;16.65;7.93;;;;;;;0.66;76.00;100542.69;8434097;34;20581;-75
2022/01/06 23:36:43;;;;;;;17.58;7.40;;;;;;;0.71;75.70;100540.72;8407689;34;20550;-74
2022/01/06 23:41:48;;;;;;;17.70;7.18;;;;;;;0.51;76.60;100528.25;8405394;34;20582;-75
2022/01/06 23:46:51;;;;;;;18.60;8.07;;;;;;;0.56;76.68;100526.28;8406468;34;21067;-75
2022/01/06 23:51:54;;;;;;;23.65;8.15;;;;;;;0.57;76.91;100521.88;8414443;34;20418;-75
2022/01/06 23:56:59;;;;;;;19.42;7.47;;;;;;;0.55;76.98;100516.66;8424802;34;20494;-75
